Accueil
METAR-TAF:

METAR-TAF

Aéroports :

Houlton International Airport

Houlton, Maine, États-Unis

latitude: 46-07-23N, longitude: 067-47-31W, altitude: 149 m

Observation

Le bulletin a été fait il y a 19 minutes, à 20:53 UTC
Vent 8 kt de ouest/sud-ouest
Température 17°C
Humidité 27%
Pression 1014 hPa
Visibilité: 16.1 km
Nuages fragmentés à une hauteur de 12000 ft

METAR: KHUL 242053Z AUTO 25008KT 10SM BKN120 17/M02 A2993 RMK AO2 SLP139 T01721017 56021

Heure: 17:12 (21:12 UTC)

Prévision

Le bulletin a été fait il y a 3 heures et 45 minutes, à 17:27 UTC
Prévision valable du 24 à 18 UTC au 25 à 18 UTC
Vent 8 kt de ouest/sud-ouest avec des rafales jusqu'à 15 kt
Visibilité: 10 km
Quelques nuages à une hauteur de 22000 ft
A partir de 25 à 1700 UTC
Vent 8 kt de ouest
Visibilité: 10 km
Ciel couvert à une hauteur de 5000 ft, Cumulonimbus.
orage à proximité

TAF: KHUL 241727Z 2418/2518 25008G15KT P6SM FEW220 FM251700 27008KT P6SM VCTS OVC050CB

Observations et prévisions météorologiques de plus de 4000 aéroports (messages METAR et TAF).

Les stations disponibles sont représentées par des disques jaunes et rouges sur la carte.

Passer la souris dessus pour voir le nom de la station.

Cliquer dessus pour voir les observations et prévisions météorologiques.

Pour changer de carte: cliquez sur les boutons verts avec une croix noire pour zoomer, sur le bouton vert avec un tiret pour effectuer un zoom arrière, ou sur les flèches vertes pour les cartes adjacentes.


METAR-TAF: